Airport View

Enter AWOS ICAO identifier for current METAR.

ex. KFNL

KMAI 262253Z AUTO 00000KT 10SM -RA BKN080 OVC100 11/06 A3006 RMK AO2 SLP179 P0002 T01060061

26 Jan 2020 23:26

Frequency: 133.525

Phone: 850-482-6082

Other Area AWOS: K17J - K1J0 - KBGE - KDHN

TAF KDHN 261733Z 2618/2718 VRB05KT P6SM BKN100 TEMPO 2700/2704 6SM -RA BR OVC050 FM270600 VRB03KT 6SM -RA BR OVC025 FM271200 VRB03KT P6SM -RA BKN007 PROB30 2712/2718 4SM RA OVC001